sensor_id;sensor_type;location;lat;lon;timestamp;P1;durP1;ratioP1;P2;durP2;ratioP2
18931;SDS011;9598;50.954;3.112;2022-09-09T00:03:42;2.40;;;2.03;;
18931;SDS011;9598;50.954;3.112;2022-09-09T00:08:51;3.25;;;1.70;;
18931;SDS011;9598;50.954;3.112;2022-09-09T00:14:03;6.18;;;2.17;;
18931;SDS011;9598;50.954;3.112;2022-09-09T00:19:17;4.43;;;1.88;;
18931;SDS011;9598;50.954;3.112;2022-09-09T00:24:24;3.13;;;1.65;;
18931;SDS011;9598;50.954;3.112;2022-09-09T00:29:35;4.22;;;1.70;;
18931;SDS011;9598;50.954;3.112;2022-09-09T00:34:44;2.53;;;1.65;;
18931;SDS011;9598;50.954;3.112;2022-09-09T00:39:49;3.85;;;1.90;;
18931;SDS011;9598;50.954;3.112;2022-09-09T00:45:01;5.35;;;1.60;;
18931;SDS011;9598;50.954;3.112;2022-09-09T00:50:15;2.88;;;2.03;;
18931;SDS011;9598;50.954;3.112;2022-09-09T00:55:35;4.32;;;1.70;;
18931;SDS011;9598;50.954;3.112;2022-09-09T01:00:44;3.90;;;1.80;;
18931;SDS011;9598;50.954;3.112;2022-09-09T01:05:53;3.15;;;1.45;;
18931;SDS011;9598;50.954;3.112;2022-09-09T01:11:01;2.55;;;1.65;;
18931;SDS011;9598;50.954;3.112;2022-09-09T01:16:08;5.43;;;2.38;;
18931;SDS011;9598;50.954;3.112;2022-09-09T01:21:15;3.10;;;1.60;;
18931;SDS011;9598;50.954;3.112;2022-09-09T01:26:26;6.38;;;2.15;;
18931;SDS011;9598;50.954;3.112;2022-09-09T01:31:36;2.75;;;1.70;;
18931;SDS011;9598;50.954;3.112;2022-09-09T01:36:42;4.32;;;1.90;;
18931;SDS011;9598;50.954;3.112;2022-09-09T01:41:49;5.10;;;2.17;;
18931;SDS011;9598;50.954;3.112;2022-09-09T01:46:53;5.63;;;2.10;;
18931;SDS011;9598;50.954;3.112;2022-09-09T01:51:57;4.70;;;2.20;;
18931;SDS011;9598;50.954;3.112;2022-09-09T01:57:11;7.15;;;2.00;;
18931;SDS011;9598;50.954;3.112;2022-09-09T02:02:22;5.07;;;2.00;;
18931;SDS011;9598;50.954;3.112;2022-09-09T02:07:51;4.82;;;1.90;;
18931;SDS011;9598;50.954;3.112;2022-09-09T02:13:07;4.13;;;2.08;;
18931;SDS011;9598;50.954;3.112;2022-09-09T02:18:12;3.22;;;2.03;;
18931;SDS011;9598;50.954;3.112;2022-09-09T02:23:18;6.18;;;1.90;;
18931;SDS011;9598;50.954;3.112;2022-09-09T02:28:26;4.05;;;2.05;;
18931;SDS011;9598;50.954;3.112;2022-09-09T02:33:33;7.07;;;2.25;;
18931;SDS011;9598;50.954;3.112;2022-09-09T02:38:45;6.68;;;2.33;;
18931;SDS011;9598;50.954;3.112;2022-09-09T02:43:52;6.55;;;2.38;;
18931;SDS011;9598;50.954;3.112;2022-09-09T02:48:57;6.95;;;1.92;;
18931;SDS011;9598;50.954;3.112;2022-09-09T02:54:09;5.22;;;2.13;;
18931;SDS011;9598;50.954;3.112;2022-09-09T02:59:18;6.10;;;2.05;;
18931;SDS011;9598;50.954;3.112;2022-09-09T03:04:21;7.38;;;2.35;;
18931;SDS011;9598;50.954;3.112;2022-09-09T03:09:25;8.38;;;2.70;;
18931;SDS011;9598;50.954;3.112;2022-09-09T03:14:30;7.03;;;2.50;;
18931;SDS011;9598;50.954;3.112;2022-09-09T03:19:32;11.85;;;2.90;;
18931;SDS011;9598;50.954;3.112;2022-09-09T03:24:35;6.47;;;2.72;;
18931;SDS011;9598;50.954;3.112;2022-09-09T03:29:40;9.57;;;2.67;;
18931;SDS011;9598;50.954;3.112;2022-09-09T03:34:47;6.90;;;2.60;;
18931;SDS011;9598;50.954;3.112;2022-09-09T03:39:49;6.40;;;2.70;;
18931;SDS011;9598;50.954;3.112;2022-09-09T03:44:57;5.88;;;2.28;;
18931;SDS011;9598;50.954;3.112;2022-09-09T03:50:00;8.18;;;2.83;;
18931;SDS011;9598;50.954;3.112;2022-09-09T03:55:04;10.20;;;2.95;;
18931;SDS011;9598;50.954;3.112;2022-09-09T04:00:10;10.38;;;3.95;;
18931;SDS011;9598;50.954;3.112;2022-09-09T04:05:18;7.32;;;2.65;;
18931;SDS011;9598;50.954;3.112;2022-09-09T04:10:22;8.82;;;3.42;;
18931;SDS011;9598;50.954;3.112;2022-09-09T04:15:25;10.70;;;3.03;;
18931;SDS011;9598;50.954;3.112;2022-09-09T04:20:28;5.03;;;2.70;;
18931;SDS011;9598;50.954;3.112;2022-09-09T04:25:31;6.72;;;3.17;;
18931;SDS011;9598;50.954;3.112;2022-09-09T04:30:36;6.63;;;2.92;;
18931;SDS011;9598;50.954;3.112;2022-09-09T04:35:43;9.30;;;2.70;;
18931;SDS011;9598;50.954;3.112;2022-09-09T04:40:49;12.38;;;3.70;;
18931;SDS011;9598;50.954;3.112;2022-09-09T04:45:56;10.25;;;3.28;;
18931;SDS011;9598;50.954;3.112;2022-09-09T04:51:00;11.90;;;3.42;;
18931;SDS011;9598;50.954;3.112;2022-09-09T04:56:05;8.60;;;3.72;;
18931;SDS011;9598;50.954;3.112;2022-09-09T05:01:16;7.78;;;2.92;;
18931;SDS011;9598;50.954;3.112;2022-09-09T05:06:21;10.80;;;2.97;;
18931;SDS011;9598;50.954;3.112;2022-09-09T05:11:28;10.40;;;3.28;;
18931;SDS011;9598;50.954;3.112;2022-09-09T05:17:05;9.65;;;2.95;;
18931;SDS011;9598;50.954;3.112;2022-09-09T05:22:10;9.05;;;3.15;;
18931;SDS011;9598;50.954;3.112;2022-09-09T05:27:17;6.90;;;3.40;;
18931;SDS011;9598;50.954;3.112;2022-09-09T05:32:23;7.82;;;3.83;;
18931;SDS011;9598;50.954;3.112;2022-09-09T05:37:25;11.38;;;3.05;;
18931;SDS011;9598;50.954;3.112;2022-09-09T05:42:29;10.43;;;3.45;;
18931;SDS011;9598;50.954;3.112;2022-09-09T05:47:34;12.52;;;3.67;;
18931;SDS011;9598;50.954;3.112;2022-09-09T05:52:38;9.52;;;3.25;;
18931;SDS011;9598;50.954;3.112;2022-09-09T05:57:41;8.63;;;3.10;;
18931;SDS011;9598;50.954;3.112;2022-09-09T06:02:49;10.63;;;3.10;;
18931;SDS011;9598;50.954;3.112;2022-09-09T06:07:53;9.30;;;3.40;;
18931;SDS011;9598;50.954;3.112;2022-09-09T06:12:57;8.82;;;3.17;;
18931;SDS011;9598;50.954;3.112;2022-09-09T06:18:00;9.35;;;3.42;;
18931;SDS011;9598;50.954;3.112;2022-09-09T06:23:03;9.02;;;3.28;;
18931;SDS011;9598;50.954;3.112;2022-09-09T06:28:05;15.35;;;4.25;;
18931;SDS011;9598;50.954;3.112;2022-09-09T06:33:10;9.55;;;3.88;;
18931;SDS011;9598;50.954;3.112;2022-09-09T06:38:12;8.57;;;3.67;;
18931;SDS011;9598;50.954;3.112;2022-09-09T06:43:14;10.80;;;3.28;;
18931;SDS011;9598;50.954;3.112;2022-09-09T06:48:24;10.15;;;3.63;;
18931;SDS011;9598;50.954;3.112;2022-09-09T06:53:28;9.20;;;3.33;;
18931;SDS011;9598;50.954;3.112;2022-09-09T06:58:31;6.78;;;3.03;;
18931;SDS011;9598;50.954;3.112;2022-09-09T07:03:36;9.85;;;3.08;;
18931;SDS011;9598;50.954;3.112;2022-09-09T07:08:39;8.60;;;3.28;;
18931;SDS011;9598;50.954;3.112;2022-09-09T07:13:41;7.45;;;3.22;;
18931;SDS011;9598;50.954;3.112;2022-09-09T07:18:45;8.38;;;3.35;;
18931;SDS011;9598;50.954;3.112;2022-09-09T07:23:47;9.40;;;3.30;;
18931;SDS011;9598;50.954;3.112;2022-09-09T07:28:50;5.00;;;2.97;;
18931;SDS011;9598;50.954;3.112;2022-09-09T07:33:54;7.28;;;4.10;;
18931;SDS011;9598;50.954;3.112;2022-09-09T07:38:58;7.05;;;3.50;;
18931;SDS011;9598;50.954;3.112;2022-09-09T07:44:06;6.75;;;2.67;;
18931;SDS011;9598;50.954;3.112;2022-09-09T07:49:13;8.82;;;3.08;;
18931;SDS011;9598;50.954;3.112;2022-09-09T07:54:16;11.55;;;3.55;;
18931;SDS011;9598;50.954;3.112;2022-09-09T07:59:24;5.72;;;2.70;;
18931;SDS011;9598;50.954;3.112;2022-09-09T08:04:29;7.25;;;3.58;;
18931;SDS011;9598;50.954;3.112;2022-09-09T08:09:31;4.63;;;2.97;;
18931;SDS011;9598;50.954;3.112;2022-09-09T08:15:00;6.28;;;2.40;;
18931;SDS011;9598;50.954;3.112;2022-09-09T08:20:08;6.72;;;3.00;;
18931;SDS011;9598;50.954;3.112;2022-09-09T08:25:12;6.25;;;3.22;;
18931;SDS011;9598;50.954;3.112;2022-09-09T08:30:15;3.80;;;2.33;;
18931;SDS011;9598;50.954;3.112;2022-09-09T08:35:19;4.55;;;2.78;;
18931;SDS011;9598;50.954;3.112;2022-09-09T08:40:24;4.47;;;2.47;;
18931;SDS011;9598;50.954;3.112;2022-09-09T08:45:31;6.85;;;2.60;;
18931;SDS011;9598;50.954;3.112;2022-09-09T08:50:45;5.07;;;2.72;;
18931;SDS011;9598;50.954;3.112;2022-09-09T08:55:54;2.45;;;2.17;;
18931;SDS011;9598;50.954;3.112;2022-09-09T09:01:12;5.32;;;2.30;;
18931;SDS011;9598;50.954;3.112;2022-09-09T09:06:37;3.55;;;2.22;;
18931;SDS011;9598;50.954;3.112;2022-09-09T09:11:48;4.78;;;2.30;;
18931;SDS011;9598;50.954;3.112;2022-09-09T09:16:53;4.55;;;2.03;;
18931;SDS011;9598;50.954;3.112;2022-09-09T09:22:04;3.47;;;2.05;;
18931;SDS011;9598;50.954;3.112;2022-09-09T09:27:18;2.97;;;1.98;;
18931;SDS011;9598;50.954;3.112;2022-09-09T09:32:30;3.17;;;1.77;;
18931;SDS011;9598;50.954;3.112;2022-09-09T09:37:36;4.85;;;1.80;;
18931;SDS011;9598;50.954;3.112;2022-09-09T09:42:47;3.70;;;2.03;;
18931;SDS011;9598;50.954;3.112;2022-09-09T09:47:57;3.33;;;1.85;;
18931;SDS011;9598;50.954;3.112;2022-09-09T09:53:02;4.38;;;1.63;;
18931;SDS011;9598;50.954;3.112;2022-09-09T09:58:13;4.20;;;1.80;;
18931;SDS011;9598;50.954;3.112;2022-09-09T10:03:19;4.70;;;1.60;;
18931;SDS011;9598;50.954;3.112;2022-09-09T10:08:27;3.78;;;1.35;;
18931;SDS011;9598;50.954;3.112;2022-09-09T10:13:31;3.72;;;1.40;;
18931;SDS011;9598;50.954;3.112;2022-09-09T10:18:47;1.77;;;1.67;;
18931;SDS011;9598;50.954;3.112;2022-09-09T10:24:04;3.33;;;1.88;;
18931;SDS011;9598;50.954;3.112;2022-09-09T10:29:32;2.80;;;1.83;;
18931;SDS011;9598;50.954;3.112;2022-09-09T10:34:55;3.13;;;1.80;;
18931;SDS011;9598;50.954;3.112;2022-09-09T10:40:02;2.88;;;1.38;;
18931;SDS011;9598;50.954;3.112;2022-09-09T10:45:20;3.80;;;1.77;;
18931;SDS011;9598;50.954;3.112;2022-09-09T10:50:44;2.85;;;1.52;;
18931;SDS011;9598;50.954;3.112;2022-09-09T10:55:55;4.32;;;2.00;;
18931;SDS011;9598;50.954;3.112;2022-09-09T11:01:01;5.68;;;1.90;;
18931;SDS011;9598;50.954;3.112;2022-09-09T11:06:12;4.07;;;1.60;;
18931;SDS011;9598;50.954;3.112;2022-09-09T11:11:19;2.70;;;1.48;;
18931;SDS011;9598;50.954;3.112;2022-09-09T11:16:28;3.05;;;1.75;;
18931;SDS011;9598;50.954;3.112;2022-09-09T11:21:36;4.35;;;1.73;;
18931;SDS011;9598;50.954;3.112;2022-09-09T11:26:44;3.03;;;1.45;;
18931;SDS011;9598;50.954;3.112;2022-09-09T11:31:54;3.80;;;1.67;;
18931;SDS011;9598;50.954;3.112;2022-09-09T11:37:08;3.55;;;1.63;;
18931;SDS011;9598;50.954;3.112;2022-09-09T11:42:24;6.07;;;2.20;;
18931;SDS011;9598;50.954;3.112;2022-09-09T11:47:28;3.85;;;2.05;;
18931;SDS011;9598;50.954;3.112;2022-09-09T11:52:36;2.95;;;2.10;;
18931;SDS011;9598;50.954;3.112;2022-09-09T11:57:40;5.63;;;2.17;;
18931;SDS011;9598;50.954;3.112;2022-09-09T12:02:48;3.13;;;2.10;;
18931;SDS011;9598;50.954;3.112;2022-09-09T12:07:52;5.43;;;2.92;;
18931;SDS011;9598;50.954;3.112;2022-09-09T12:13:09;2.95;;;2.33;;
18931;SDS011;9598;50.954;3.112;2022-09-09T12:18:21;3.10;;;2.33;;
18931;SDS011;9598;50.954;3.112;2022-09-09T12:23:28;3.67;;;2.30;;
18931;SDS011;9598;50.954;3.112;2022-09-09T12:28:44;3.72;;;2.60;;
18931;SDS011;9598;50.954;3.112;2022-09-09T12:33:53;3.67;;;2.35;;
18931;SDS011;9598;50.954;3.112;2022-09-09T12:38:55;5.13;;;2.88;;
18931;SDS011;9598;50.954;3.112;2022-09-09T12:44:12;3.70;;;2.70;;
18931;SDS011;9598;50.954;3.112;2022-09-09T12:49:24;4.80;;;2.25;;
18931;SDS011;9598;50.954;3.112;2022-09-09T12:54:34;6.25;;;2.53;;
18931;SDS011;9598;50.954;3.112;2022-09-09T12:59:40;3.22;;;2.53;;
18931;SDS011;9598;50.954;3.112;2022-09-09T13:04:45;6.25;;;2.55;;
18931;SDS011;9598;50.954;3.112;2022-09-09T13:09:48;4.70;;;2.70;;
18931;SDS011;9598;50.954;3.112;2022-09-09T13:14:52;5.05;;;2.92;;
18931;SDS011;9598;50.954;3.112;2022-09-09T13:19:56;5.93;;;2.50;;
18931;SDS011;9598;50.954;3.112;2022-09-09T13:24:59;3.17;;;2.63;;
18931;SDS011;9598;50.954;3.112;2022-09-09T13:35:24;4.63;;;3.08;;
18931;SDS011;9598;50.954;3.112;2022-09-09T13:40:26;2.25;;;2.05;;
18931;SDS011;9598;50.954;3.112;2022-09-09T13:45:30;5.82;;;2.28;;
18931;SDS011;9598;50.954;3.112;2022-09-09T13:50:34;2.08;;;1.50;;
18931;SDS011;9598;50.954;3.112;2022-09-09T13:55:36;3.17;;;1.80;;
18931;SDS011;9598;50.954;3.112;2022-09-09T14:00:40;3.70;;;1.73;;
18931;SDS011;9598;50.954;3.112;2022-09-09T14:05:43;4.35;;;1.42;;
18931;SDS011;9598;50.954;3.112;2022-09-09T14:10:46;1.98;;;1.20;;
18931;SDS011;9598;50.954;3.112;2022-09-09T14:15:49;3.47;;;1.52;;
18931;SDS011;9598;50.954;3.112;2022-09-09T14:20:52;2.38;;;1.13;;
18931;SDS011;9598;50.954;3.112;2022-09-09T14:25:54;4.05;;;1.33;;
18931;SDS011;9598;50.954;3.112;2022-09-09T14:31:00;2.17;;;1.33;;
18931;SDS011;9598;50.954;3.112;2022-09-09T14:36:03;2.80;;;1.42;;
18931;SDS011;9598;50.954;3.112;2022-09-09T14:41:05;2.25;;;1.27;;
18931;SDS011;9598;50.954;3.112;2022-09-09T14:46:09;1.77;;;1.10;;
18931;SDS011;9598;50.954;3.112;2022-09-09T14:51:13;1.67;;;1.30;;
18931;SDS011;9598;50.954;3.112;2022-09-09T14:56:17;3.65;;;1.80;;
18931;SDS011;9598;50.954;3.112;2022-09-09T15:01:22;1.90;;;1.67;;
18931;SDS011;9598;50.954;3.112;2022-09-09T15:06:27;2.08;;;1.90;;
18931;SDS011;9598;50.954;3.112;2022-09-09T15:11:33;4.55;;;2.50;;
18931;SDS011;9598;50.954;3.112;2022-09-09T15:16:39;5.20;;;3.33;;
18931;SDS011;9598;50.954;3.112;2022-09-09T15:21:42;5.53;;;2.80;;
18931;SDS011;9598;50.954;3.112;2022-09-09T15:26:44;4.85;;;3.35;;
18931;SDS011;9598;50.954;3.112;2022-09-09T15:31:47;5.90;;;3.65;;
18931;SDS011;9598;50.954;3.112;2022-09-09T15:36:49;6.15;;;3.00;;
18931;SDS011;9598;50.954;3.112;2022-09-09T15:41:51;5.25;;;3.53;;
18931;SDS011;9598;50.954;3.112;2022-09-09T15:46:55;4.13;;;2.97;;
18931;SDS011;9598;50.954;3.112;2022-09-09T15:51:57;4.93;;;2.85;;
18931;SDS011;9598;50.954;3.112;2022-09-09T15:57:04;3.95;;;2.28;;
18931;SDS011;9598;50.954;3.112;2022-09-09T16:02:09;3.63;;;2.28;;
18931;SDS011;9598;50.954;3.112;2022-09-09T16:07:11;3.40;;;2.13;;
18931;SDS011;9598;50.954;3.112;2022-09-09T16:12:13;2.70;;;1.95;;
18931;SDS011;9598;50.954;3.112;2022-09-09T16:17:17;1.88;;;1.35;;
18931;SDS011;9598;50.954;3.112;2022-09-09T16:22:20;3.75;;;1.90;;
18931;SDS011;9598;50.954;3.112;2022-09-09T16:27:24;7.53;;;1.65;;
18931;SDS011;9598;50.954;3.112;2022-09-09T16:32:28;4.43;;;1.95;;
18931;SDS011;9598;50.954;3.112;2022-09-09T16:37:30;5.30;;;1.88;;
18931;SDS011;9598;50.954;3.112;2022-09-09T16:42:34;4.78;;;1.92;;
18931;SDS011;9598;50.954;3.112;2022-09-09T16:47:37;4.97;;;1.70;;
18931;SDS011;9598;50.954;3.112;2022-09-09T16:52:39;4.70;;;1.77;;
18931;SDS011;9598;50.954;3.112;2022-09-09T16:57:41;5.07;;;1.80;;
18931;SDS011;9598;50.954;3.112;2022-09-09T17:02:45;5.05;;;1.85;;
18931;SDS011;9598;50.954;3.112;2022-09-09T17:07:47;5.82;;;1.63;;
18931;SDS011;9598;50.954;3.112;2022-09-09T17:12:49;8.30;;;2.08;;
18931;SDS011;9598;50.954;3.112;2022-09-09T17:17:52;6.15;;;1.88;;
18931;SDS011;9598;50.954;3.112;2022-09-09T17:22:55;9.32;;;2.33;;
18931;SDS011;9598;50.954;3.112;2022-09-09T17:27:57;7.32;;;2.40;;
18931;SDS011;9598;50.954;3.112;2022-09-09T17:33:01;6.68;;;2.30;;
18931;SDS011;9598;50.954;3.112;2022-09-09T17:38:03;9.73;;;2.28;;
18931;SDS011;9598;50.954;3.112;2022-09-09T17:43:05;5.13;;;1.73;;
18931;SDS011;9598;50.954;3.112;2022-09-09T17:48:10;5.03;;;1.70;;
18931;SDS011;9598;50.954;3.112;2022-09-09T17:53:12;3.38;;;1.15;;
18931;SDS011;9598;50.954;3.112;2022-09-09T17:58:14;5.05;;;1.42;;
18931;SDS011;9598;50.954;3.112;2022-09-09T18:03:17;8.52;;;1.80;;
18931;SDS011;9598;50.954;3.112;2022-09-09T18:08:19;5.75;;;2.00;;
18931;SDS011;9598;50.954;3.112;2022-09-09T18:13:21;3.72;;;1.40;;
18931;SDS011;9598;50.954;3.112;2022-09-09T18:18:25;5.88;;;1.50;;
18931;SDS011;9598;50.954;3.112;2022-09-09T18:23:29;7.35;;;2.42;;
18931;SDS011;9598;50.954;3.112;2022-09-09T18:28:31;4.93;;;1.63;;
18931;SDS011;9598;50.954;3.112;2022-09-09T18:33:35;6.28;;;1.70;;
18931;SDS011;9598;50.954;3.112;2022-09-09T18:38:41;5.93;;;1.90;;
18931;SDS011;9598;50.954;3.112;2022-09-09T18:43:43;4.90;;;1.65;;
18931;SDS011;9598;50.954;3.112;2022-09-09T18:48:47;5.93;;;2.25;;
18931;SDS011;9598;50.954;3.112;2022-09-09T18:53:51;5.95;;;1.98;;
18931;SDS011;9598;50.954;3.112;2022-09-09T18:58:55;5.47;;;1.88;;
18931;SDS011;9598;50.954;3.112;2022-09-09T19:04:00;9.00;;;1.85;;
18931;SDS011;9598;50.954;3.112;2022-09-09T19:09:03;7.88;;;2.45;;
18931;SDS011;9598;50.954;3.112;2022-09-09T19:14:06;8.32;;;2.10;;
18931;SDS011;9598;50.954;3.112;2022-09-09T19:19:13;5.93;;;2.10;;
18931;SDS011;9598;50.954;3.112;2022-09-09T19:24:16;5.50;;;1.92;;
18931;SDS011;9598;50.954;3.112;2022-09-09T19:29:21;5.82;;;2.05;;
18931;SDS011;9598;50.954;3.112;2022-09-09T19:34:25;7.18;;;1.88;;
18931;SDS011;9598;50.954;3.112;2022-09-09T19:39:27;6.20;;;1.90;;
18931;SDS011;9598;50.954;3.112;2022-09-09T19:44:31;6.32;;;1.98;;
18931;SDS011;9598;50.954;3.112;2022-09-09T19:49:37;4.15;;;1.70;;
18931;SDS011;9598;50.954;3.112;2022-09-09T19:54:40;7.93;;;1.90;;
18931;SDS011;9598;50.954;3.112;2022-09-09T19:59:42;5.18;;;2.13;;
18931;SDS011;9598;50.954;3.112;2022-09-09T20:04:49;4.70;;;1.90;;
18931;SDS011;9598;50.954;3.112;2022-09-09T20:09:51;4.03;;;1.55;;
18931;SDS011;9598;50.954;3.112;2022-09-09T20:14:54;7.55;;;2.20;;
18931;SDS011;9598;50.954;3.112;2022-09-09T20:19:57;3.90;;;1.70;;
18931;SDS011;9598;50.954;3.112;2022-09-09T20:24:59;4.32;;;1.92;;
18931;SDS011;9598;50.954;3.112;2022-09-09T20:30:02;6.65;;;2.45;;
18931;SDS011;9598;50.954;3.112;2022-09-09T20:35:06;9.93;;;2.25;;
18931;SDS011;9598;50.954;3.112;2022-09-09T20:40:08;9.07;;;2.50;;
18931;SDS011;9598;50.954;3.112;2022-09-09T20:45:11;6.97;;;2.35;;
18931;SDS011;9598;50.954;3.112;2022-09-09T20:50:16;6.95;;;2.10;;
18931;SDS011;9598;50.954;3.112;2022-09-09T20:55:18;7.47;;;2.50;;
18931;SDS011;9598;50.954;3.112;2022-09-09T21:00:20;6.15;;;2.25;;
18931;SDS011;9598;50.954;3.112;2022-09-09T21:05:24;6.88;;;2.20;;
18931;SDS011;9598;50.954;3.112;2022-09-09T21:10:27;7.25;;;2.75;;
18931;SDS011;9598;50.954;3.112;2022-09-09T21:15:29;5.55;;;2.67;;
18931;SDS011;9598;50.954;3.112;2022-09-09T21:20:34;7.65;;;2.40;;
18931;SDS011;9598;50.954;3.112;2022-09-09T21:25:37;8.10;;;2.75;;
18931;SDS011;9598;50.954;3.112;2022-09-09T21:30:39;5.68;;;2.60;;
18931;SDS011;9598;50.954;3.112;2022-09-09T21:35:43;5.43;;;2.50;;
18931;SDS011;9598;50.954;3.112;2022-09-09T21:40:45;8.25;;;2.80;;
18931;SDS011;9598;50.954;3.112;2022-09-09T21:45:49;6.75;;;2.38;;
18931;SDS011;9598;50.954;3.112;2022-09-09T21:50:52;6.70;;;2.42;;
18931;SDS011;9598;50.954;3.112;2022-09-09T21:55:59;6.55;;;2.67;;
18931;SDS011;9598;50.954;3.112;2022-09-09T22:01:06;5.60;;;2.55;;
18931;SDS011;9598;50.954;3.112;2022-09-09T22:06:12;4.80;;;2.53;;
18931;SDS011;9598;50.954;3.112;2022-09-09T22:11:16;4.50;;;2.55;;
18931;SDS011;9598;50.954;3.112;2022-09-09T22:16:21;6.68;;;3.13;;
18931;SDS011;9598;50.954;3.112;2022-09-09T22:21:26;8.65;;;3.00;;
18931;SDS011;9598;50.954;3.112;2022-09-09T22:26:32;7.93;;;3.42;;
18931;SDS011;9598;50.954;3.112;2022-09-09T22:31:36;6.45;;;2.65;;
18931;SDS011;9598;50.954;3.112;2022-09-09T22:36:40;9.20;;;2.90;;
18931;SDS011;9598;50.954;3.112;2022-09-09T22:41:42;5.95;;;3.00;;
18931;SDS011;9598;50.954;3.112;2022-09-09T22:46:44;8.90;;;3.33;;
18931;SDS011;9598;50.954;3.112;2022-09-09T22:51:48;10.02;;;3.58;;
18931;SDS011;9598;50.954;3.112;2022-09-09T22:56:50;5.40;;;2.80;;
18931;SDS011;9598;50.954;3.112;2022-09-09T23:01:52;5.65;;;3.22;;
18931;SDS011;9598;50.954;3.112;2022-09-09T23:06:57;8.32;;;3.55;;
18931;SDS011;9598;50.954;3.112;2022-09-09T23:12:00;9.88;;;3.80;;
18931;SDS011;9598;50.954;3.112;2022-09-09T23:17:02;6.03;;;3.25;;
18931;SDS011;9598;50.954;3.112;2022-09-09T23:22:05;11.13;;;3.88;;
18931;SDS011;9598;50.954;3.112;2022-09-09T23:27:07;8.43;;;3.92;;
18931;SDS011;9598;50.954;3.112;2022-09-09T23:32:09;10.38;;;3.88;;
18931;SDS011;9598;50.954;3.112;2022-09-09T23:37:16;7.13;;;3.67;;
18931;SDS011;9598;50.954;3.112;2022-09-09T23:42:18;8.43;;;3.47;;
18931;SDS011;9598;50.954;3.112;2022-09-09T23:47:20;10.38;;;3.80;;
18931;SDS011;9598;50.954;3.112;2022-09-09T23:52:24;9.55;;;3.95;;
18931;SDS011;9598;50.954;3.112;2022-09-09T23:57:26;8.40;;;4.00;;
